Winston, New Mexico
Current Conditions -  °F | °C
As of 1:53 AM on Monday 24 Nov 2014 (Local Time) from KTCS Reporting Station
Clear Clear  
Wind Chill: 28°   Ceiling: Unl
Heat Index: 34°   Visibility: 10mi
Dew Point: -1°   Wind: 7mph
Humidity: 23%   Direction: 310°NW
Pressure: 30.1"   Gusts: NA
Location:  33.33°N, 107.65°W
Report Text: KTCS 240853Z AUTO 31006KT 10SM CLR 01/M18 A3010 RMK AO2 SLP162 T00111183 50002 TSNO
Loading
Personal Weather Stations






























Interactive Weather Map New forecast layout! Learn more

10-Day Weather Forecast

Advertisements
Track Severe Weather on mobile